Welaka, Florida
Current Conditions -  °F | °C
As of 2:55 AM on Saturday 25 Oct 2014 (Local Time) from KXFL Reporting Station
Clear Clear  
Wind Chill: 61°   Ceiling: Unl
Heat Index: 61°   Visibility: NA
Dew Point: 54°   Wind: 5mph
Humidity: 78%   Direction: 330°NNW
Pressure: 29.96"   Gusts: NA
Location:  29.48°N, 81.67°W
Report Text: KXFL 250655Z AUTO 33004KT CLR 16/12 A2996 RMK AO2 T01600122 PWINO
Loading
Personal Weather Stations






























Interactive Weather Map New forecast layout! Learn more

10-Day Weather Forecast

Advertisements
Track Severe Weather on mobile